sensor_id;sensor_type;location;lat;lon;timestamp;P1;durP1;ratioP1;P2;durP2;ratioP2
74363;SDS011;62797;49.740;10.154;2023-04-15T00:01:22;11.38;;;7.13;;
74363;SDS011;62797;49.740;10.154;2023-04-15T00:03:50;15.67;;;8.80;;
74363;SDS011;62797;49.740;10.154;2023-04-15T00:06:17;18.58;;;9.38;;
74363;SDS011;62797;49.740;10.154;2023-04-15T00:08:46;15.45;;;8.65;;
74363;SDS011;62797;49.740;10.154;2023-04-15T00:11:13;13.63;;;8.63;;
74363;SDS011;62797;49.740;10.154;2023-04-15T00:13:39;15.52;;;8.40;;
74363;SDS011;62797;49.740;10.154;2023-04-15T00:16:05;12.88;;;7.75;;
74363;SDS011;62797;49.740;10.154;2023-04-15T00:18:32;8.95;;;5.95;;
74363;SDS011;62797;49.740;10.154;2023-04-15T00:20:58;15.43;;;7.85;;
74363;SDS011;62797;49.740;10.154;2023-04-15T00:23:24;16.48;;;9.48;;
74363;SDS011;62797;49.740;10.154;2023-04-15T00:25:50;20.60;;;11.30;;
74363;SDS011;62797;49.740;10.154;2023-04-15T00:28:16;23.80;;;11.68;;
74363;SDS011;62797;49.740;10.154;2023-04-15T00:30:42;20.98;;;11.05;;
74363;SDS011;62797;49.740;10.154;2023-04-15T00:33:08;20.50;;;9.77;;
74363;SDS011;62797;49.740;10.154;2023-04-15T00:35:34;22.15;;;10.50;;
74363;SDS011;62797;49.740;10.154;2023-04-15T00:38:02;19.73;;;9.10;;
74363;SDS011;62797;49.740;10.154;2023-04-15T00:40:28;14.88;;;9.43;;
74363;SDS011;62797;49.740;10.154;2023-04-15T00:42:54;13.70;;;7.70;;
74363;SDS011;62797;49.740;10.154;2023-04-15T00:45:20;13.50;;;8.60;;
74363;SDS011;62797;49.740;10.154;2023-04-15T00:47:46;15.10;;;8.70;;
74363;SDS011;62797;49.740;10.154;2023-04-15T00:50:12;15.93;;;8.25;;
74363;SDS011;62797;49.740;10.154;2023-04-15T00:52:38;16.00;;;7.47;;
74363;SDS011;62797;49.740;10.154;2023-04-15T00:57:31;15.38;;;7.65;;
74363;SDS011;62797;49.740;10.154;2023-04-15T00:59:57;13.80;;;7.82;;
74363;SDS011;62797;49.740;10.154;2023-04-15T01:02:23;16.13;;;8.50;;
74363;SDS011;62797;49.740;10.154;2023-04-15T01:04:49;10.70;;;7.47;;
74363;SDS011;62797;49.740;10.154;2023-04-15T01:07:15;14.02;;;7.72;;
74363;SDS011;62797;49.740;10.154;2023-04-15T01:12:08;16.92;;;8.43;;
74363;SDS011;62797;49.740;10.154;2023-04-15T01:14:36;14.57;;;7.35;;
74363;SDS011;62797;49.740;10.154;2023-04-15T01:17:01;11.25;;;7.70;;
74363;SDS011;62797;49.740;10.154;2023-04-15T01:19:27;15.30;;;7.93;;
74363;SDS011;62797;49.740;10.154;2023-04-15T01:21:53;14.05;;;8.48;;
74363;SDS011;62797;49.740;10.154;2023-04-15T01:24:19;11.73;;;8.57;;
74363;SDS011;62797;49.740;10.154;2023-04-15T01:26:45;11.30;;;7.88;;
74363;SDS011;62797;49.740;10.154;2023-04-15T01:29:12;14.65;;;8.15;;
74363;SDS011;62797;49.740;10.154;2023-04-15T01:31:39;16.45;;;9.45;;
74363;SDS011;62797;49.740;10.154;2023-04-15T01:34:05;12.77;;;7.00;;
74363;SDS011;62797;49.740;10.154;2023-04-15T01:36:30;14.50;;;8.00;;
74363;SDS011;62797;49.740;10.154;2023-04-15T01:38:56;21.83;;;10.30;;
74363;SDS011;62797;49.740;10.154;2023-04-15T01:41:26;17.50;;;8.05;;
74363;SDS011;62797;49.740;10.154;2023-04-15T01:43:52;15.68;;;8.95;;
74363;SDS011;62797;49.740;10.154;2023-04-15T01:46:18;17.95;;;8.70;;
74363;SDS011;62797;49.740;10.154;2023-04-15T01:48:45;14.70;;;8.13;;
74363;SDS011;62797;49.740;10.154;2023-04-15T01:51:10;12.97;;;8.27;;
74363;SDS011;62797;49.740;10.154;2023-04-15T01:53:36;16.33;;;7.60;;
74363;SDS011;62797;49.740;10.154;2023-04-15T01:56:02;15.13;;;8.80;;
74363;SDS011;62797;49.740;10.154;2023-04-15T01:58:28;13.13;;;8.85;;
74363;SDS011;62797;49.740;10.154;2023-04-15T02:00:54;17.23;;;8.15;;
74363;SDS011;62797;49.740;10.154;2023-04-15T02:03:20;14.38;;;8.70;;
74363;SDS011;62797;49.740;10.154;2023-04-15T02:05:46;12.60;;;7.17;;
74363;SDS011;62797;49.740;10.154;2023-04-15T02:08:15;10.90;;;7.43;;
74363;SDS011;62797;49.740;10.154;2023-04-15T02:10:41;15.85;;;7.82;;
74363;SDS011;62797;49.740;10.154;2023-04-15T02:13:06;11.87;;;7.67;;
74363;SDS011;62797;49.740;10.154;2023-04-15T02:15:32;11.93;;;7.65;;
74363;SDS011;62797;49.740;10.154;2023-04-15T02:17:58;20.97;;;9.00;;
74363;SDS011;62797;49.740;10.154;2023-04-15T02:20:24;19.95;;;9.05;;
74363;SDS011;62797;49.740;10.154;2023-04-15T02:22:50;15.35;;;9.05;;
74363;SDS011;62797;49.740;10.154;2023-04-15T02:25:16;14.18;;;7.82;;
74363;SDS011;62797;49.740;10.154;2023-04-15T02:27:42;11.10;;;7.35;;
74363;SDS011;62797;49.740;10.154;2023-04-15T02:30:08;11.85;;;7.43;;
74363;SDS011;62797;49.740;10.154;2023-04-15T02:32:34;11.50;;;6.15;;
74363;SDS011;62797;49.740;10.154;2023-04-15T02:35:05;11.82;;;7.18;;
74363;SDS011;62797;49.740;10.154;2023-04-15T02:37:34;11.57;;;6.97;;
74363;SDS011;62797;49.740;10.154;2023-04-15T02:40:06;11.63;;;7.22;;
74363;SDS011;62797;49.740;10.154;2023-04-15T02:42:34;14.73;;;7.07;;
74363;SDS011;62797;49.740;10.154;2023-04-15T02:45:00;13.20;;;8.05;;
74363;SDS011;62797;49.740;10.154;2023-04-15T02:47:30;11.02;;;7.13;;
74363;SDS011;62797;49.740;10.154;2023-04-15T02:49:56;20.67;;;7.77;;
74363;SDS011;62797;49.740;10.154;2023-04-15T02:52:23;10.63;;;7.38;;
74363;SDS011;62797;49.740;10.154;2023-04-15T02:54:48;17.25;;;8.13;;
74363;SDS011;62797;49.740;10.154;2023-04-15T02:57:14;15.63;;;7.70;;
74363;SDS011;62797;49.740;10.154;2023-04-15T02:59:40;14.47;;;7.13;;
74363;SDS011;62797;49.740;10.154;2023-04-15T03:02:05;16.03;;;7.80;;
74363;SDS011;62797;49.740;10.154;2023-04-15T03:04:32;11.38;;;7.22;;
74363;SDS011;62797;49.740;10.154;2023-04-15T03:06:58;12.38;;;8.30;;
74363;SDS011;62797;49.740;10.154;2023-04-15T03:09:26;12.77;;;7.20;;
74363;SDS011;62797;49.740;10.154;2023-04-15T03:11:55;17.63;;;8.02;;
74363;SDS011;62797;49.740;10.154;2023-04-15T03:14:22;11.35;;;6.82;;
74363;SDS011;62797;49.740;10.154;2023-04-15T03:16:47;11.27;;;6.97;;
74363;SDS011;62797;49.740;10.154;2023-04-15T03:19:15;11.57;;;7.97;;
74363;SDS011;62797;49.740;10.154;2023-04-15T03:21:42;14.70;;;7.93;;
74363;SDS011;62797;49.740;10.154;2023-04-15T03:24:08;11.77;;;7.53;;
74363;SDS011;62797;49.740;10.154;2023-04-15T03:26:34;19.23;;;8.03;;
74363;SDS011;62797;49.740;10.154;2023-04-15T03:29:04;14.77;;;8.65;;
74363;SDS011;62797;49.740;10.154;2023-04-15T03:31:30;13.77;;;8.33;;
74363;SDS011;62797;49.740;10.154;2023-04-15T03:33:56;12.80;;;7.70;;
74363;SDS011;62797;49.740;10.154;2023-04-15T03:36:22;13.63;;;8.80;;
74363;SDS011;62797;49.740;10.154;2023-04-15T03:38:47;14.33;;;8.37;;
74363;SDS011;62797;49.740;10.154;2023-04-15T03:41:14;19.67;;;8.38;;
74363;SDS011;62797;49.740;10.154;2023-04-15T03:43:39;12.57;;;8.17;;
74363;SDS011;62797;49.740;10.154;2023-04-15T03:46:05;16.85;;;8.40;;
74363;SDS011;62797;49.740;10.154;2023-04-15T03:48:31;17.17;;;9.15;;
74363;SDS011;62797;49.740;10.154;2023-04-15T03:50:56;14.93;;;8.63;;
74363;SDS011;62797;49.740;10.154;2023-04-15T03:53:22;16.47;;;9.93;;
74363;SDS011;62797;49.740;10.154;2023-04-15T03:55:48;22.33;;;9.60;;
74363;SDS011;62797;49.740;10.154;2023-04-15T03:58:13;15.33;;;8.53;;
74363;SDS011;62797;49.740;10.154;2023-04-15T04:00:39;14.20;;;7.68;;
74363;SDS011;62797;49.740;10.154;2023-04-15T04:03:07;14.80;;;8.00;;
74363;SDS011;62797;49.740;10.154;2023-04-15T04:05:33;12.05;;;7.38;;
74363;SDS011;62797;49.740;10.154;2023-04-15T04:08:01;15.70;;;8.30;;
74363;SDS011;62797;49.740;10.154;2023-04-15T04:10:26;18.55;;;7.65;;
74363;SDS011;62797;49.740;10.154;2023-04-15T04:12:52;10.33;;;6.83;;
74363;SDS011;62797;49.740;10.154;2023-04-15T04:15:17;15.10;;;7.03;;
74363;SDS011;62797;49.740;10.154;2023-04-15T04:17:43;14.63;;;8.60;;
74363;SDS011;62797;49.740;10.154;2023-04-15T04:20:09;17.17;;;7.73;;
74363;SDS011;62797;49.740;10.154;2023-04-15T04:22:38;14.82;;;7.28;;
74363;SDS011;62797;49.740;10.154;2023-04-15T04:25:05;14.10;;;6.45;;
74363;SDS011;62797;49.740;10.154;2023-04-15T04:27:32;10.02;;;6.78;;
74363;SDS011;62797;49.740;10.154;2023-04-15T04:29:58;16.42;;;8.98;;
74363;SDS011;62797;49.740;10.154;2023-04-15T04:32:24;15.00;;;7.85;;
74363;SDS011;62797;49.740;10.154;2023-04-15T04:34:50;14.32;;;6.30;;
74363;SDS011;62797;49.740;10.154;2023-04-15T04:37:15;12.07;;;7.37;;
74363;SDS011;62797;49.740;10.154;2023-04-15T04:39:41;13.47;;;8.70;;
74363;SDS011;62797;49.740;10.154;2023-04-15T04:42:06;15.20;;;8.30;;
74363;SDS011;62797;49.740;10.154;2023-04-15T04:44:32;11.00;;;7.10;;
74363;SDS011;62797;49.740;10.154;2023-04-15T04:46:58;12.73;;;8.00;;
74363;SDS011;62797;49.740;10.154;2023-04-15T04:49:24;14.70;;;7.77;;
74363;SDS011;62797;49.740;10.154;2023-04-15T04:51:49;11.30;;;6.50;;
74363;SDS011;62797;49.740;10.154;2023-04-15T04:54:16;16.23;;;8.07;;
74363;SDS011;62797;49.740;10.154;2023-04-15T04:56:41;13.90;;;7.97;;
74363;SDS011;62797;49.740;10.154;2023-04-15T04:59:07;15.53;;;10.17;;
74363;SDS011;62797;49.740;10.154;2023-04-15T05:01:33;13.23;;;8.45;;
74363;SDS011;62797;49.740;10.154;2023-04-15T05:03:59;15.70;;;8.90;;
74363;SDS011;62797;49.740;10.154;2023-04-15T05:06:25;13.52;;;7.95;;
74363;SDS011;62797;49.740;10.154;2023-04-15T05:08:51;12.60;;;7.63;;
74363;SDS011;62797;49.740;10.154;2023-04-15T05:11:17;13.73;;;7.78;;
74363;SDS011;62797;49.740;10.154;2023-04-15T05:13:43;11.67;;;7.70;;
74363;SDS011;62797;49.740;10.154;2023-04-15T05:16:08;15.40;;;8.27;;
74363;SDS011;62797;49.740;10.154;2023-04-15T05:18:34;13.83;;;8.53;;
74363;SDS011;62797;49.740;10.154;2023-04-15T05:21:00;11.93;;;7.60;;
74363;SDS011;62797;49.740;10.154;2023-04-15T05:23:26;13.95;;;8.25;;
74363;SDS011;62797;49.740;10.154;2023-04-15T05:25:52;13.83;;;7.20;;
74363;SDS011;62797;49.740;10.154;2023-04-15T05:28:17;13.57;;;7.03;;
74363;SDS011;62797;49.740;10.154;2023-04-15T05:30:43;10.77;;;6.50;;
74363;SDS011;62797;49.740;10.154;2023-04-15T05:33:09;12.90;;;7.70;;
74363;SDS011;62797;49.740;10.154;2023-04-15T05:35:34;15.35;;;7.72;;
74363;SDS011;62797;49.740;10.154;2023-04-15T05:38:00;12.80;;;8.10;;
74363;SDS011;62797;49.740;10.154;2023-04-15T05:40:26;16.53;;;8.13;;
74363;SDS011;62797;49.740;10.154;2023-04-15T05:42:52;13.38;;;8.38;;
74363;SDS011;62797;49.740;10.154;2023-04-15T05:45:17;12.87;;;7.23;;
74363;SDS011;62797;49.740;10.154;2023-04-15T05:47:43;11.10;;;6.93;;
74363;SDS011;62797;49.740;10.154;2023-04-15T05:50:09;9.63;;;6.77;;
74363;SDS011;62797;49.740;10.154;2023-04-15T05:52:37;11.07;;;7.60;;
74363;SDS011;62797;49.740;10.154;2023-04-15T05:55:02;9.77;;;6.90;;
74363;SDS011;62797;49.740;10.154;2023-04-15T05:57:33;11.38;;;7.07;;
74363;SDS011;62797;49.740;10.154;2023-04-15T05:59:58;8.27;;;6.38;;
74363;SDS011;62797;49.740;10.154;2023-04-15T06:02:24;9.33;;;6.30;;
74363;SDS011;62797;49.740;10.154;2023-04-15T06:04:50;8.98;;;6.10;;
74363;SDS011;62797;49.740;10.154;2023-04-15T06:07:16;12.25;;;7.43;;
74363;SDS011;62797;49.740;10.154;2023-04-15T06:09:41;11.27;;;4.70;;
74363;SDS011;62797;49.740;10.154;2023-04-15T06:12:07;6.60;;;4.33;;
74363;SDS011;62797;49.740;10.154;2023-04-15T06:14:36;14.80;;;7.22;;
74363;SDS011;62797;49.740;10.154;2023-04-15T06:19:28;13.75;;;7.25;;
74363;SDS011;62797;49.740;10.154;2023-04-15T06:21:54;10.48;;;6.10;;
74363;SDS011;62797;49.740;10.154;2023-04-15T06:24:19;9.60;;;6.10;;
74363;SDS011;62797;49.740;10.154;2023-04-15T06:26:45;12.05;;;6.75;;
74363;SDS011;62797;49.740;10.154;2023-04-15T06:29:11;10.53;;;6.37;;
74363;SDS011;62797;49.740;10.154;2023-04-15T06:31:36;11.50;;;6.77;;
74363;SDS011;62797;49.740;10.154;2023-04-15T06:34:02;14.03;;;6.73;;
74363;SDS011;62797;49.740;10.154;2023-04-15T06:36:27;12.57;;;7.47;;
74363;SDS011;62797;49.740;10.154;2023-04-15T06:38:53;12.43;;;7.60;;
74363;SDS011;62797;49.740;10.154;2023-04-15T06:41:19;11.13;;;6.77;;
74363;SDS011;62797;49.740;10.154;2023-04-15T06:43:44;16.67;;;7.80;;
74363;SDS011;62797;49.740;10.154;2023-04-15T06:46:10;12.33;;;6.47;;
74363;SDS011;62797;49.740;10.154;2023-04-15T06:48:35;15.80;;;7.53;;
74363;SDS011;62797;49.740;10.154;2023-04-15T06:51:01;13.07;;;6.20;;
74363;SDS011;62797;49.740;10.154;2023-04-15T06:55:53;9.95;;;6.32;;
74363;SDS011;62797;49.740;10.154;2023-04-15T06:58:19;5.70;;;4.32;;
74363;SDS011;62797;49.740;10.154;2023-04-15T07:00:45;8.65;;;6.10;;
74363;SDS011;62797;49.740;10.154;2023-04-15T07:03:12;12.55;;;7.00;;
74363;SDS011;62797;49.740;10.154;2023-04-15T07:05:39;10.18;;;5.50;;
74363;SDS011;62797;49.740;10.154;2023-04-15T07:08:05;10.80;;;5.90;;
74363;SDS011;62797;49.740;10.154;2023-04-15T07:10:32;10.88;;;5.03;;
74363;SDS011;62797;49.740;10.154;2023-04-15T07:12:58;9.30;;;6.07;;
74363;SDS011;62797;49.740;10.154;2023-04-15T07:15:23;9.03;;;5.17;;
74363;SDS011;62797;49.740;10.154;2023-04-15T07:17:49;10.00;;;5.53;;
74363;SDS011;62797;49.740;10.154;2023-04-15T07:20:15;14.50;;;6.43;;
74363;SDS011;62797;49.740;10.154;2023-04-15T07:22:41;8.53;;;5.83;;
74363;SDS011;62797;49.740;10.154;2023-04-15T07:25:06;9.60;;;6.33;;
74363;SDS011;62797;49.740;10.154;2023-04-15T07:27:33;12.05;;;6.45;;
74363;SDS011;62797;49.740;10.154;2023-04-15T07:29:58;12.27;;;7.30;;
74363;SDS011;62797;49.740;10.154;2023-04-15T07:32:24;10.70;;;6.30;;
74363;SDS011;62797;49.740;10.154;2023-04-15T07:34:50;14.80;;;7.05;;
74363;SDS011;62797;49.740;10.154;2023-04-15T07:37:15;12.00;;;5.78;;
74363;SDS011;62797;49.740;10.154;2023-04-15T07:39:41;11.10;;;6.73;;
74363;SDS011;62797;49.740;10.154;2023-04-15T07:42:07;14.40;;;7.18;;
74363;SDS011;62797;49.740;10.154;2023-04-15T07:44:33;9.45;;;4.72;;
74363;SDS011;62797;49.740;10.154;2023-04-15T07:47:01;9.00;;;6.30;;
74363;SDS011;62797;49.740;10.154;2023-04-15T07:49:27;11.45;;;6.75;;
74363;SDS011;62797;49.740;10.154;2023-04-15T07:51:53;14.27;;;7.50;;
74363;SDS011;62797;49.740;10.154;2023-04-15T07:54:20;11.38;;;7.40;;
74363;SDS011;62797;49.740;10.154;2023-04-15T07:56:46;8.00;;;5.70;;
74363;SDS011;62797;49.740;10.154;2023-04-15T07:59:12;14.77;;;6.53;;
74363;SDS011;62797;49.740;10.154;2023-04-15T08:01:39;12.20;;;7.43;;
74363;SDS011;62797;49.740;10.154;2023-04-15T08:04:07;13.80;;;6.57;;
74363;SDS011;62797;49.740;10.154;2023-04-15T08:06:33;9.55;;;6.15;;
74363;SDS011;62797;49.740;10.154;2023-04-15T08:08:58;6.83;;;5.07;;
74363;SDS011;62797;49.740;10.154;2023-04-15T08:11:24;12.70;;;5.38;;
74363;SDS011;62797;49.740;10.154;2023-04-15T08:13:51;9.50;;;4.95;;
74363;SDS011;62797;49.740;10.154;2023-04-15T08:16:21;13.47;;;5.80;;
74363;SDS011;62797;49.740;10.154;2023-04-15T08:18:48;6.05;;;4.40;;
74363;SDS011;62797;49.740;10.154;2023-04-15T08:21:15;7.65;;;5.38;;
74363;SDS011;62797;49.740;10.154;2023-04-15T08:23:43;6.75;;;4.85;;
74363;SDS011;62797;49.740;10.154;2023-04-15T08:26:09;15.45;;;10.20;;
74363;SDS011;62797;49.740;10.154;2023-04-15T08:28:36;11.07;;;6.72;;
74363;SDS011;62797;49.740;10.154;2023-04-15T08:31:04;12.32;;;7.70;;
74363;SDS011;62797;49.740;10.154;2023-04-15T08:33:30;9.52;;;5.28;;
74363;SDS011;62797;49.740;10.154;2023-04-15T08:35:55;8.17;;;5.30;;
74363;SDS011;62797;49.740;10.154;2023-04-15T08:38:21;13.05;;;6.82;;
74363;SDS011;62797;49.740;10.154;2023-04-15T08:40:47;9.50;;;4.78;;
74363;SDS011;62797;49.740;10.154;2023-04-15T08:43:20;8.15;;;4.88;;
74363;SDS011;62797;49.740;10.154;2023-04-15T08:45:51;8.57;;;5.55;;
74363;SDS011;62797;49.740;10.154;2023-04-15T08:48:17;9.10;;;5.70;;
74363;SDS011;62797;49.740;10.154;2023-04-15T08:50:44;7.78;;;5.97;;
74363;SDS011;62797;49.740;10.154;2023-04-15T08:53:11;6.55;;;4.93;;
74363;SDS011;62797;49.740;10.154;2023-04-15T08:55:39;9.13;;;5.75;;
74363;SDS011;62797;49.740;10.154;2023-04-15T08:58:09;8.50;;;5.55;;
74363;SDS011;62797;49.740;10.154;2023-04-15T09:00:35;11.27;;;7.07;;
74363;SDS011;62797;49.740;10.154;2023-04-15T09:05:30;12.23;;;7.15;;
74363;SDS011;62797;49.740;10.154;2023-04-15T09:07:58;11.50;;;6.78;;
74363;SDS011;62797;49.740;10.154;2023-04-15T09:10:24;9.77;;;6.18;;
74363;SDS011;62797;49.740;10.154;2023-04-15T09:12:49;7.17;;;3.87;;
74363;SDS011;62797;49.740;10.154;2023-04-15T09:15:15;10.43;;;5.30;;
74363;SDS011;62797;49.740;10.154;2023-04-15T09:17:44;6.10;;;3.88;;
74363;SDS011;62797;49.740;10.154;2023-04-15T09:20:14;4.22;;;3.40;;
74363;SDS011;62797;49.740;10.154;2023-04-15T09:22:44;6.45;;;4.13;;
74363;SDS011;62797;49.740;10.154;2023-04-15T09:27:49;7.55;;;3.67;;
74363;SDS011;62797;49.740;10.154;2023-04-15T09:30:18;8.02;;;3.05;;
74363;SDS011;62797;49.740;10.154;2023-04-15T09:32:50;5.10;;;2.30;;
74363;SDS011;62797;49.740;10.154;2023-04-15T09:35:26;4.28;;;2.20;;
74363;SDS011;62797;49.740;10.154;2023-04-15T09:37:53;4.00;;;2.10;;
74363;SDS011;62797;49.740;10.154;2023-04-15T09:40:38;3.63;;;2.08;;
74363;SDS011;62797;49.740;10.154;2023-04-15T09:43:07;5.90;;;2.80;;
74363;SDS011;62797;49.740;10.154;2023-04-15T09:45:34;7.00;;;5.05;;
74363;SDS011;62797;49.740;10.154;2023-04-15T09:48:14;9.15;;;3.85;;
74363;SDS011;62797;49.740;10.154;2023-04-15T09:50:45;6.85;;;4.30;;
74363;SDS011;62797;49.740;10.154;2023-04-15T09:53:19;7.10;;;4.30;;
74363;SDS011;62797;49.740;10.154;2023-04-15T09:55:50;4.68;;;3.03;;
74363;SDS011;62797;49.740;10.154;2023-04-15T09:58:26;4.85;;;2.50;;
74363;SDS011;62797;49.740;10.154;2023-04-15T10:00:57;6.25;;;2.85;;
74363;SDS011;62797;49.740;10.154;2023-04-15T10:03:31;2.92;;;1.95;;
74363;SDS011;62797;49.740;10.154;2023-04-15T10:06:00;5.75;;;2.85;;
74363;SDS011;62797;49.740;10.154;2023-04-15T10:08:30;4.50;;;2.35;;
74363;SDS011;62797;49.740;10.154;2023-04-15T10:10:59;7.20;;;1.88;;
74363;SDS011;62797;49.740;10.154;2023-04-15T10:13:28;5.40;;;3.05;;
74363;SDS011;62797;49.740;10.154;2023-04-15T10:16:09;11.30;;;5.35;;
74363;SDS011;62797;49.740;10.154;2023-04-15T10:18:37;8.38;;;3.03;;
74363;SDS011;62797;49.740;10.154;2023-04-15T10:21:07;3.40;;;1.77;;
74363;SDS011;62797;49.740;10.154;2023-04-15T10:23:33;3.95;;;2.38;;
74363;SDS011;62797;49.740;10.154;2023-04-15T10:25:59;5.07;;;2.83;;
74363;SDS011;62797;49.740;10.154;2023-04-15T10:28:26;6.20;;;2.17;;
74363;SDS011;62797;49.740;10.154;2023-04-15T10:30:52;2.85;;;1.95;;
74363;SDS011;62797;49.740;10.154;2023-04-15T10:33:20;3.10;;;2.67;;
74363;SDS011;62797;49.740;10.154;2023-04-15T10:35:48;4.55;;;2.30;;
74363;SDS011;62797;49.740;10.154;2023-04-15T10:43:37;7.97;;;3.30;;
74363;SDS011;62797;49.740;10.154;2023-04-15T10:46:04;6.50;;;2.63;;
74363;SDS011;62797;49.740;10.154;2023-04-15T10:48:30;5.43;;;2.83;;
74363;SDS011;62797;49.740;10.154;2023-04-15T10:50:56;6.55;;;2.60;;
74363;SDS011;62797;49.740;10.154;2023-04-15T10:53:27;5.47;;;3.60;;
74363;SDS011;62797;49.740;10.154;2023-04-15T10:55:54;12.73;;;6.20;;
74363;SDS011;62797;49.740;10.154;2023-04-15T10:58:22;6.20;;;3.20;;
74363;SDS011;62797;49.740;10.154;2023-04-15T11:00:49;4.05;;;2.38;;
74363;SDS011;62797;49.740;10.154;2023-04-15T11:03:20;4.50;;;1.80;;
74363;SDS011;62797;49.740;10.154;2023-04-15T11:06:05;2.45;;;1.67;;
74363;SDS011;62797;49.740;10.154;2023-04-15T11:09:05;3.00;;;2.08;;
74363;SDS011;62797;49.740;10.154;2023-04-15T11:14:31;5.10;;;3.00;;
74363;SDS011;62797;49.740;10.154;2023-04-15T11:16:58;3.92;;;2.40;;
74363;SDS011;62797;49.740;10.154;2023-04-15T11:19:24;4.23;;;3.20;;
74363;SDS011;62797;49.740;10.154;2023-04-15T11:21:50;3.53;;;2.97;;
74363;SDS011;62797;49.740;10.154;2023-04-15T11:24:23;3.45;;;3.05;;
74363;SDS011;62797;49.740;10.154;2023-04-15T11:26:57;6.10;;;2.78;;
74363;SDS011;62797;49.740;10.154;2023-04-15T11:29:27;4.50;;;2.85;;
74363;SDS011;62797;49.740;10.154;2023-04-15T11:32:05;5.63;;;3.70;;
74363;SDS011;62797;49.740;10.154;2023-04-15T11:34:32;4.53;;;2.95;;
74363;SDS011;62797;49.740;10.154;2023-04-15T11:37:02;3.05;;;2.55;;
74363;SDS011;62797;49.740;10.154;2023-04-15T11:39:29;2.83;;;2.50;;
74363;SDS011;62797;49.740;10.154;2023-04-15T11:41:54;5.80;;;2.53;;
74363;SDS011;62797;49.740;10.154;2023-04-15T11:44:20;5.07;;;2.80;;
74363;SDS011;62797;49.740;10.154;2023-04-15T11:46:45;3.53;;;2.30;;
74363;SDS011;62797;49.740;10.154;2023-04-15T11:49:11;7.97;;;4.97;;
74363;SDS011;62797;49.740;10.154;2023-04-15T11:51:49;3.65;;;2.92;;
74363;SDS011;62797;49.740;10.154;2023-04-15T11:54:17;5.47;;;3.13;;
74363;SDS011;62797;49.740;10.154;2023-04-15T11:56:43;4.85;;;3.83;;
74363;SDS011;62797;49.740;10.154;2023-04-15T11:59:15;4.53;;;3.38;;
74363;SDS011;62797;49.740;10.154;2023-04-15T12:01:41;8.87;;;3.53;;
74363;SDS011;62797;49.740;10.154;2023-04-15T12:04:12;6.03;;;3.92;;
74363;SDS011;62797;49.740;10.154;2023-04-15T12:06:38;8.27;;;3.78;;
74363;SDS011;62797;49.740;10.154;2023-04-15T12:14:05;5.35;;;3.72;;
74363;SDS011;62797;49.740;10.154;2023-04-15T12:16:40;4.90;;;3.58;;
74363;SDS011;62797;49.740;10.154;2023-04-15T12:19:10;5.38;;;4.00;;
74363;SDS011;62797;49.740;10.154;2023-04-15T12:21:38;43.63;;;15.48;;
74363;SDS011;62797;49.740;10.154;2023-04-15T12:24:06;11.70;;;6.35;;
74363;SDS011;62797;49.740;10.154;2023-04-15T12:26:37;5.72;;;4.03;;
74363;SDS011;62797;49.740;10.154;2023-04-15T12:29:12;5.57;;;3.78;;
74363;SDS011;62797;49.740;10.154;2023-04-15T12:34:18;5.68;;;3.83;;
74363;SDS011;62797;49.740;10.154;2023-04-15T12:36:54;7.45;;;3.55;;
74363;SDS011;62797;49.740;10.154;2023-04-15T12:39:21;8.35;;;5.63;;
74363;SDS011;62797;49.740;10.154;2023-04-15T12:41:52;6.72;;;4.45;;
74363;SDS011;62797;49.740;10.154;2023-04-15T12:44:18;4.38;;;3.45;;
74363;SDS011;62797;49.740;10.154;2023-04-15T12:46:48;4.75;;;3.80;;
74363;SDS011;62797;49.740;10.154;2023-04-15T12:49:14;4.43;;;3.42;;
74363;SDS011;62797;49.740;10.154;2023-04-15T12:51:43;4.35;;;3.40;;
74363;SDS011;62797;49.740;10.154;2023-04-15T12:54:09;5.78;;;3.90;;
74363;SDS011;62797;49.740;10.154;2023-04-15T12:56:35;5.00;;;3.37;;
74363;SDS011;62797;49.740;10.154;2023-04-15T12:59:00;7.07;;;4.17;;
74363;SDS011;62797;49.740;10.154;2023-04-15T13:01:26;9.57;;;3.85;;
74363;SDS011;62797;49.740;10.154;2023-04-15T13:03:52;3.90;;;3.40;;
74363;SDS011;62797;49.740;10.154;2023-04-15T13:06:19;5.87;;;3.67;;
74363;SDS011;62797;49.740;10.154;2023-04-15T13:08:45;7.35;;;4.05;;
74363;SDS011;62797;49.740;10.154;2023-04-15T13:11:11;5.23;;;3.37;;
74363;SDS011;62797;49.740;10.154;2023-04-15T13:13:36;7.17;;;3.87;;
74363;SDS011;62797;49.740;10.154;2023-04-15T13:16:02;5.83;;;3.50;;
74363;SDS011;62797;49.740;10.154;2023-04-15T13:18:28;4.47;;;3.33;;
74363;SDS011;62797;49.740;10.154;2023-04-15T13:20:55;6.07;;;3.95;;
74363;SDS011;62797;49.740;10.154;2023-04-15T13:23:21;7.28;;;3.45;;
74363;SDS011;62797;49.740;10.154;2023-04-15T13:25:46;5.50;;;4.00;;
74363;SDS011;62797;49.740;10.154;2023-04-15T13:28:12;5.05;;;3.45;;
74363;SDS011;62797;49.740;10.154;2023-04-15T13:30:38;3.90;;;3.33;;
74363;SDS011;62797;49.740;10.154;2023-04-15T13:33:04;4.50;;;3.20;;
74363;SDS011;62797;49.740;10.154;2023-04-15T13:35:30;6.22;;;2.92;;
74363;SDS011;62797;49.740;10.154;2023-04-15T13:37:56;3.67;;;2.70;;
74363;SDS011;62797;49.740;10.154;2023-04-15T13:40:22;7.53;;;3.10;;
74363;SDS011;62797;49.740;10.154;2023-04-15T13:42:47;4.13;;;3.13;;
74363;SDS011;62797;49.740;10.154;2023-04-15T13:45:13;4.90;;;3.33;;
74363;SDS011;62797;49.740;10.154;2023-04-15T13:47:39;7.40;;;3.90;;
74363;SDS011;62797;49.740;10.154;2023-04-15T13:50:05;3.93;;;2.93;;
74363;SDS011;62797;49.740;10.154;2023-04-15T13:52:31;5.07;;;3.65;;
74363;SDS011;62797;49.740;10.154;2023-04-15T13:54:56;6.43;;;3.57;;
74363;SDS011;62797;49.740;10.154;2023-04-15T13:57:22;4.97;;;3.45;;
74363;SDS011;62797;49.740;10.154;2023-04-15T13:59:48;6.27;;;3.50;;
74363;SDS011;62797;49.740;10.154;2023-04-15T14:02:14;3.55;;;3.00;;
74363;SDS011;62797;49.740;10.154;2023-04-15T14:04:39;10.10;;;5.13;;
74363;SDS011;62797;49.740;10.154;2023-04-15T14:07:05;6.17;;;3.73;;
74363;SDS011;62797;49.740;10.154;2023-04-15T14:09:30;5.37;;;3.43;;
74363;SDS011;62797;49.740;10.154;2023-04-15T14:11:56;7.53;;;4.20;;
74363;SDS011;62797;49.740;10.154;2023-04-15T14:14:23;5.28;;;3.30;;
74363;SDS011;62797;49.740;10.154;2023-04-15T14:16:49;5.63;;;3.63;;
74363;SDS011;62797;49.740;10.154;2023-04-15T14:19:15;6.00;;;3.10;;
74363;SDS011;62797;49.740;10.154;2023-04-15T14:21:41;17.37;;;7.67;;
74363;SDS011;62797;49.740;10.154;2023-04-15T14:24:06;18.87;;;5.97;;
74363;SDS011;62797;49.740;10.154;2023-04-15T14:26:32;26.20;;;10.80;;
74363;SDS011;62797;49.740;10.154;2023-04-15T14:28:57;3.47;;;2.40;;
74363;SDS011;62797;49.740;10.154;2023-04-15T14:31:23;17.60;;;8.77;;
74363;SDS011;62797;49.740;10.154;2023-04-15T14:33:49;17.57;;;7.40;;
74363;SDS011;62797;49.740;10.154;2023-04-15T14:36:15;9.00;;;4.10;;
74363;SDS011;62797;49.740;10.154;2023-04-15T14:38:40;7.37;;;3.67;;
74363;SDS011;62797;49.740;10.154;2023-04-15T14:41:06;12.30;;;4.07;;
74363;SDS011;62797;49.740;10.154;2023-04-15T14:43:32;5.15;;;2.30;;
74363;SDS011;62797;49.740;10.154;2023-04-15T14:45:58;4.47;;;2.30;;
74363;SDS011;62797;49.740;10.154;2023-04-15T14:48:24;12.35;;;5.80;;
74363;SDS011;62797;49.740;10.154;2023-04-15T14:50:50;8.27;;;5.28;;
74363;SDS011;62797;49.740;10.154;2023-04-15T14:53:16;7.43;;;3.42;;
74363;SDS011;62797;49.740;10.154;2023-04-15T14:55:42;5.40;;;2.90;;